WetterOnline ( https://www.wetteronline.de )

Wetter aktuell Neustadt

Aktuelles Wetter: Pelzerhaken/Neustadt i.H. (2m)

6-stündlich | Neueste Meldungen
Ortszeit Temperatur Wetter
Do, 22.02. 19:00 7.9° C bedeckt
Do, 22.02. 13:00 7.3° C bedeckt
Do, 22.02. 7:00 6.2° C bedeckt
Do, 22.02. 1:00 7.2° C leichter Regen
Mi, 21.02. 19:00 6.0° C bedeckt
Mi, 21.02. 13:00 10.1° C wolkig
Mi, 21.02. 7:00 7.8° C Regen
Mi, 21.02. 1:00 7.4° C Sprühregen
Ortszeit Temperatur Wetter
Do, 22.02. 21:30 8.0° C leichter Regen
Do, 22.02. 21:20 8.0° C leichter Regen
Do, 22.02. 21:10 8.0° C Sprühregen
Do, 22.02. 21:00 8.0° C leichter Regen
Do, 22.02. 20:50 8.0° C leichter Regen
Do, 22.02. 20:40 8.0° C leichter Regen
Do, 22.02. 20:30 8.3° C bedeckt
Do, 22.02. 20:00 8.2° C bedeckt
Do, 22.02. 19:30 8.0° C bedeckt
Do, 22.02. 19:00 7.9° C bedeckt
Do, 22.02. 18:30 7.4° C bewölkt
Ortszeit Relative Feuchte Sichtweite
Do, 22.02. 19:00 93% 27 km
Do, 22.02. 13:00 94% 17 km
Do, 22.02. 7:00 97% 21 km
Do, 22.02. 1:00 83% 27 km
Mi, 21.02. 19:00 93% 14 km
Mi, 21.02. 13:00 74% 35 km
Mi, 21.02. 7:00 93% 23 km
Mi, 21.02. 1:00 93% 6 km
Ortszeit Relative Feuchte Sichtweite
Do, 22.02. 21:30 96% 14 km
Do, 22.02. 21:20 96% -
Do, 22.02. 21:10 97% -
Do, 22.02. 21:00 96% 3.8 km
Do, 22.02. 20:50 96% -
Do, 22.02. 20:40 95% -
Do, 22.02. 20:30 93% 26 km
Do, 22.02. 20:00 93% 29 km
Do, 22.02. 19:30 93% 29 km
Do, 22.02. 19:00 93% 27 km
Do, 22.02. 18:30 95% 17 km
Ortszeit Niederschlagsmenge Niederschlagsart
Do, 22.02. 19:00 0.1 l/m2 in 12 Std. Regen
Do, 22.02. 13:00 0.1 l/m2 in 6 Std. Sprühregen
Do, 22.02. 7:00 0.4 l/m2 in 12 Std. Regen
Do, 22.02. 1:00 0.1 l/m2 in 6 Std. Regen
Mi, 21.02. 19:00 0.1 l/m2 in 12 Std. Regen
Mi, 21.02. 13:00 0.1 l/m2 in 6 Std. Regen
Mi, 21.02. 7:00 0.8 l/m2 in 12 Std. Regen
Mi, 21.02. 1:00 0.1 l/m2 in 6 Std. Regen
Ortszeit Niederschlagsmenge Niederschlagsart
Do, 22.02. 21:30 0.2 l/m2 in 30 Min -
Do, 22.02. 21:20 keine Meldung -
Do, 22.02. 21:10 keine Meldung -
Do, 22.02. 21:00 <0.05 l/m2 in 1 Std. Regen
Do, 22.02. 20:50 keine Meldung -
Do, 22.02. 20:40 keine Meldung -
Do, 22.02. 20:30 0.0 l/m2 in 30 Min -
Do, 22.02. 20:00 0.0 l/m2 in 1 Std. -
Do, 22.02. 19:30 0.0 l/m2 in 30 Min -
Do, 22.02. 19:00 0.0 l/m2 in 1 Std. Regen
Do, 22.02. 18:30 0.0 l/m2 in 30 Min -
Ortszeit Stärke Spitze Richtung
km/h Bft. km/h Grad Sektor
Do, 22.02. 19:00 22 4 30 160° S
Do, 22.02. 13:00 11 2 22 190° S
Do, 22.02. 7:00 18 3 40 200° S
Do, 22.02. 1:00 31 5 41 210° SW
Mi, 21.02. 19:00 14 3 40 180° S
Mi, 21.02. 13:00 18 3 36 250° W
Mi, 21.02. 7:00 13 3 44 300° NW
Mi, 21.02. 1:00 22 4 40 240° SW
Ortszeit Stärke Spitze Richtung
km/h Bft. km/h Grad Sektor
Do, 22.02. 21:30 32 5 40 170° S
Do, 22.02. 21:20 32 5 - 170° S
Do, 22.02. 21:10 33 5 - 170° S
Do, 22.02. 21:00 31 5 39 170° S
Do, 22.02. 20:50 31 5 - 170° S
Do, 22.02. 20:40 31 5 - 180° S
Do, 22.02. 20:30 32 5 40 170° S
Do, 22.02. 20:00 29 5 36 170° S
Do, 22.02. 19:30 28 4 35 160° S
Do, 22.02. 19:00 22 4 30 160° S
Do, 22.02. 18:30 22 4 29 160° S
Ortszeit Untergrenze Bedeckung Gattung
total tief tief mittel hoch
Do, 22.02. 19:00 450 m 8/8 8/8 - - -
Do, 22.02. 13:00 210 m 8/8 8/8 - - -
Do, 22.02. 7:00 210 m 8/8 8/8 - - -
Do, 22.02. 1:00 900 m 8/8 8/8 - - -
Mi, 21.02. 19:00 3000 m 8/8 8/8 - - -
Mi, 21.02. 13:00 660 m 6/8 6/8 - - -
Mi, 21.02. 7:00 390 m 8/8 8/8 - - -
Mi, 21.02. 1:00 330 m 8/8 8/8 - - -
Ortszeit Bedeckungsgrad in Achtel und Wolkenuntergrenze
Do, 22.02. 21:30 2(360m) 7(1500m) 8(1500m)
Do, 22.02. 21:20 2(360m) 7(1500m) 8(1500m)
Do, 22.02. 21:10 8
Do, 22.02. 21:00 2(360m) 6(780m) 7(1020m)
Do, 22.02. 20:50 2(360m) 6(780m) 7(1020m)
Do, 22.02. 20:40 7
Do, 22.02. 20:30 1(450m) 6(1050m) 8(1290m)
Do, 22.02. 20:00 1(630m) 6(1110m) 8(1800m)
Do, 22.02. 19:30 4(1230m) 8(2100m) 8(6600m)
Do, 22.02. 19:00 1(450m) 8(1380m) 8(1800m)
Do, 22.02. 18:30 7(780m) 7(5100m) 7(7500m)
Ortszeit Luftdruck NN (hPa) Tendenz (hPa in 3 Std.)
Do, 22.02. 19:00 983 - 4,5
Do, 22.02. 13:00 990 - 2,3
Do, 22.02. 7:00 994 - 2,3
Do, 22.02. 1:00 1000 - 3,7
Mi, 21.02. 19:00 1008 - 2,5
Mi, 21.02. 13:00 1013 - 0,9
Mi, 21.02. 7:00 1014 + 0,1
Mi, 21.02. 1:00 1017 - 2,1
Ortszeit Luftdruck NN (hPa) Tendenz (hPa in 3 Std.)
Do, 22.02. 21:30 979 - 4,5
Do, 22.02. 21:20 979 keine Meldung
Do, 22.02. 21:10 979 keine Meldung
Do, 22.02. 21:00 980 - 4,4
Do, 22.02. 20:50 980 keine Meldung
Do, 22.02. 20:40 980 keine Meldung
Do, 22.02. 20:30 981 - 3,9
Do, 22.02. 20:00 981 - 3,9
Do, 22.02. 19:30 982 - 4,2
Do, 22.02. 19:00 983 - 4,5
Do, 22.02. 18:30 984 - 4,2
Ortszeit Schneehöhe (cm)
Do, 22.02. 19:00 0
Do, 22.02. 13:00 0
Do, 22.02. 7:00 0
Do, 22.02. 1:00 0
Mi, 21.02. 19:00 0
Mi, 21.02. 13:00 0
Mi, 21.02. 7:00 0
Mi, 21.02. 1:00 0
Ortszeit Schneehöhe (cm)
Do, 22.02. 21:30 0
Do, 22.02. 21:20 0
Do, 22.02. 21:10 -
Do, 22.02. 21:00 0
Do, 22.02. 20:50 0
Do, 22.02. 20:40 -
Do, 22.02. 20:30 0
Do, 22.02. 20:00 0
Do, 22.02. 19:30 0
Do, 22.02. 19:00 0
Do, 22.02. 18:30 0
Link zu dieser Seite / Seite empfehlen

Das Wetter in ...